Time;durP1;ratioP1;P1;durP2;ratioP2;P2;SDS_P1;SDS_P2;PMS_P1;PMS_P2;Temp;Humidity;BMP_temperature;BMP_pressure;BME280_temperature;BME280_humidity;BME280_pressure;Samples;Min_cycle;Max_cycle;Signal;HPM_P1;HPM_P2
2022/12/28 00:01:49;;;;;;;;;7.00;4.33;;;;;12.26;100.00;101580.75;5003662;28;45847;-75
2022/12/28 00:04:15;;;;;;;;;4.33;3.67;;;;;12.28;100.00;101583.28;5020432;28;45672;-76
2022/12/28 00:06:40;;;;;;;;;3.67;3.67;;;;;12.31;100.00;101577.38;5017311;28;45412;-75
2022/12/28 00:09:09;;;;;;;;;6.67;6.33;;;;;12.33;100.00;101567.03;4998528;28;45526;-73
2022/12/28 00:11:35;;;;;;;;;2.33;2.33;;;;;12.35;100.00;101573.19;5017007;28;45395;-74
2022/12/28 00:14:00;;;;;;;;;5.00;4.33;;;;;12.38;100.00;101577.41;5029220;28;46700;-74
2022/12/28 00:16:37;;;;;;;;;3.00;3.00;;;;;12.39;100.00;101565.38;5024131;28;45517;-75
2022/12/28 00:19:06;;;;;;;;;4.67;3.33;;;;;12.37;100.00;101568.34;4997814;28;45969;-76
2022/12/28 00:21:31;;;;;;;;;3.67;3.67;;;;;12.40;100.00;101564.34;5009024;28;45928;-75
2022/12/28 00:23:59;;;;;;;;;2.00;0.00;;;;;12.34;100.00;101539.31;4997300;28;46132;-75
2022/12/28 00:26:31;;;;;;;;;4.00;3.67;;;;;12.41;100.00;101539.38;5003611;28;45843;-73
2022/12/28 00:28:57;;;;;;;;;5.00;3.67;;;;;12.38;100.00;101534.28;5007450;28;45430;-75
2022/12/28 00:31:22;;;;;;;;;7.67;4.00;;;;;12.36;100.00;101528.97;5007704;28;45538;-74
2022/12/28 00:33:48;;;;;;;;;5.00;4.00;;;;;12.40;100.00;101531.31;5005187;28;46247;-74
2022/12/28 00:36:15;;;;;;;;;4.00;2.00;;;;;12.36;100.00;101523.47;5012659;28;45491;-75
2022/12/28 00:38:40;;;;;;;;;4.33;2.67;;;;;12.39;100.00;101513.94;5012653;28;45313;-71
2022/12/28 00:41:06;;;;;;;;;2.67;2.67;;;;;12.41;100.00;101514.63;5024505;28;45713;-74
2022/12/28 00:43:32;;;;;;;;;3.33;2.67;;;;;12.42;100.00;101502.53;4989967;28;45720;-76
2022/12/28 00:45:58;;;;;;;;;2.67;2.67;;;;;12.42;100.00;101502.53;5000166;28;45447;-74
2022/12/28 00:48:23;;;;;;;;;4.67;4.67;;;;;12.43;100.00;101501.50;5001346;28;45533;-74
2022/12/28 00:50:49;;;;;;;;;4.00;4.00;;;;;12.40;100.00;101503.81;5009931;28;45493;-73
2022/12/28 00:53:14;;;;;;;;;4.33;3.33;;;;;12.40;100.00;101501.06;4997089;28;47859;-73
2022/12/28 00:55:40;;;;;;;;;3.67;3.67;;;;;12.39;100.00;101500.19;5005481;28;46387;-74
2022/12/28 00:58:06;;;;;;;;;4.00;4.00;;;;;12.33;100.00;101496.34;4996711;28;45366;-73
2022/12/28 01:00:33;;;;;;;;;3.33;2.00;;;;;12.39;100.00;101489.19;5010599;28;46191;-74
2022/12/28 01:02:59;;;;;;;;;3.00;2.67;;;;;12.42;100.00;101499.78;4987170;28;46300;-73
2022/12/28 01:05:25;;;;;;;;;3.67;2.33;;;;;12.40;100.00;101496.41;5018424;28;45627;-73
2022/12/28 01:07:51;;;;;;;;;3.00;2.67;;;;;12.43;100.00;101496.00;5024931;28;45432;-73
2022/12/28 01:10:17;;;;;;;;;4.67;2.67;;;;;12.48;100.00;101500.88;5008901;28;45690;-72
2022/12/28 01:12:43;;;;;;;;;5.67;3.33;;;;;12.48;100.00;101504.47;5003358;28;47100;-75
2022/12/28 01:15:10;;;;;;;;;3.67;3.33;;;;;12.44;100.00;101491.34;5024772;28;45750;-74
2022/12/28 01:17:35;;;;;;;;;5.33;3.33;;;;;12.51;100.00;101497.72;5015524;28;45446;-73
2022/12/28 01:20:00;;;;;;;;;5.67;4.67;;;;;12.54;100.00;101487.19;5033820;28;45359;-73
2022/12/28 01:22:26;;;;;;;;;2.00;2.00;;;;;12.59;100.00;101488.44;5019741;28;45744;-73
2022/12/28 01:24:52;;;;;;;;;3.67;2.67;;;;;12.58;100.00;101498.63;5033885;28;45667;-74
2022/12/28 01:27:18;;;;;;;;;5.33;4.67;;;;;12.53;100.00;101479.97;5031558;28;45710;-76
2022/12/28 01:29:44;;;;;;;;;2.00;2.00;;;;;12.50;100.00;101476.75;5033348;28;45296;-74
2022/12/28 01:32:09;;;;;;;;;2.00;2.00;;;;;12.53;100.00;101479.97;4991204;28;45491;-75
2022/12/28 01:34:35;;;;;;;;;5.33;3.67;;;;;12.54;100.00;101472.56;4999686;28;45921;-74
2022/12/28 01:37:01;;;;;;;;;7.67;3.00;;;;;12.58;100.00;101473.84;5009083;28;45439;-74
2022/12/28 01:39:26;;;;;;;;;4.00;3.00;;;;;12.58;100.00;101473.84;5023235;28;45722;-74
2022/12/28 01:41:52;;;;;;;;;3.00;3.00;;;;;12.58;100.00;101481.28;4988014;28;45716;-74
2022/12/28 01:44:23;;;;;;;;;5.67;2.67;;;;;12.59;100.00;101482.94;5005795;28;45438;-75
2022/12/28 01:46:54;;;;;;;;;2.00;2.00;;;;;12.58;100.00;101465.59;5014936;28;45411;-74
2022/12/28 01:49:28;;;;;;;;;5.00;2.67;;;;;12.63;100.00;101476.00;5025159;28;45312;-72
2022/12/28 01:52:16;;;;;;;;;2.00;2.00;;;;;12.62;100.00;101466.91;5021460;28;45425;-73
2022/12/28 01:55:02;;;;;;;;;2.00;2.00;;;;;12.60;100.00;101466.22;5011518;28;45595;-73
2022/12/28 01:57:31;;;;;;;;;3.33;3.00;;;;;12.65;100.00;101457.34;5011806;28;45601;-72
2022/12/28 02:00:07;;;;;;;;;3.67;2.67;;;;;12.64;100.00;101458.44;5026170;28;45754;-73
2022/12/28 02:02:34;;;;;;;;;4.33;4.33;;;;;12.62;100.00;101450.38;5026394;28;45937;-73
2022/12/28 02:05:00;;;;;;;;;2.33;2.33;;;;;12.65;100.00;101446.34;5018062;28;45502;-73
2022/12/28 02:07:43;;;;;;;;;2.67;2.67;;;;;12.65;100.00;101449.09;5020197;28;45540;-73
2022/12/28 02:10:10;;;;;;;;;3.00;1.67;;;;;12.68;100.00;101443.22;5001188;28;45668;-73
2022/12/28 02:12:36;;;;;;;;;2.67;2.67;;;;;12.68;100.00;101445.97;5000964;28;46779;-72
2022/12/28 02:15:03;;;;;;;;;2.67;2.67;;;;;12.60;100.00;101427.72;5032950;28;45398;-73
2022/12/28 02:17:28;;;;;;;;;2.67;1.67;;;;;12.69;100.00;101433.88;5031711;28;45751;-72
2022/12/28 02:19:54;;;;;;;;;4.67;1.67;;;;;12.68;100.00;101438.56;5017396;28;45641;-75
2022/12/28 02:22:40;;;;;;;;;1.67;1.67;;;;;12.67;100.00;101428.59;5016911;28;46513;-76
2022/12/28 02:25:41;;;;;;;;;3.33;1.67;;;;;12.69;100.00;101433.88;5012580;28;45420;-74
2022/12/28 02:28:36;;;;;;;;;1.33;1.33;;;;;12.69;100.00;101423.75;5001127;28;45428;-75
2022/12/28 02:31:07;;;;;;;;;3.00;2.67;;;;;12.66;100.00;101429.63;4994935;28;45476;-73
2022/12/28 02:34:00;;;;;;;;;4.67;1.00;;;;;12.65;100.00;101427.97;4994812;28;46253;-74
2022/12/28 02:36:31;;;;;;;;;1.00;0.67;;;;;12.68;100.00;101424.78;4990835;28;45434;-74
2022/12/28 02:39:19;;;;;;;;;3.00;3.00;;;;;12.67;100.00;101425.84;5020916;28;45623;-74
2022/12/28 02:41:46;;;;;;;;;7.00;2.33;;;;;12.73;100.00;101426.91;5007507;28;45510;-75
2022/12/28 02:50:04;;;;;;;;;4.00;2.33;;;;;12.71;100.00;101423.53;5009832;28;46793;-74
2022/12/28 02:52:45;;;;;;;;;4.00;3.00;;;;;12.75;100.00;101418.47;5020405;28;45380;-75
2022/12/28 02:58:46;;;;;;;;;5.67;3.67;;;;;12.84;100.00;101403.44;5014974;28;45386;-75
2022/12/28 03:01:27;;;;;;;;;5.33;3.00;;;;;12.88;100.00;101405.56;5005264;28;45739;-73
2022/12/28 03:04:26;;;;;;;;;0.67;0.67;;;;;12.81;100.00;101401.09;4994660;28;46327;-75
2022/12/28 03:10:09;;;;;;;;;3.00;1.67;;;;;12.80;100.00;101392.00;5015071;28;45498;-74
2022/12/28 03:16:06;;;;;;;;;3.67;3.67;;;;;12.88;100.00;101383.53;5007682;28;45405;-74
2022/12/28 03:32:33;;;;;;;;;2.00;2.00;;;;;12.93;100.00;101379.31;5005030;28;45724;-74
2022/12/28 03:34:58;;;;;;;;;5.00;2.00;;;;;12.91;100.00;101367.69;4993379;28;45490;-73
2022/12/28 03:37:30;;;;;;;;;3.33;2.33;;;;;12.92;100.00;101366.59;5011600;28;45617;-74
2022/12/28 03:40:04;;;;;;;;;3.00;3.00;;;;;12.94;100.00;101365.34;5011775;28;45681;-75
2022/12/28 03:45:28;;;;;;;;;6.33;3.67;;;;;12.91;100.00;101359.44;5003909;28;45839;-74
2022/12/28 03:47:55;;;;;;;;;6.67;5.00;;;;;12.88;100.00;101349.69;5007759;28;45682;-75
2022/12/28 03:50:22;;;;;;;;;2.00;2.00;;;;;12.85;100.00;101350.94;5014287;28;46055;-72
2022/12/28 03:52:48;;;;;;;;;3.67;3.67;;;;;12.89;100.00;101348.63;5023033;28;45261;-73
2022/12/28 03:55:14;;;;;;;;;5.33;5.00;;;;;12.93;100.00;101349.88;5017272;28;45854;-75
2022/12/28 03:57:41;;;;;;;;;6.00;4.33;;;;;12.86;100.00;101352.63;5001021;28;46412;-73
2022/12/28 04:00:09;;;;;;;;;4.33;4.00;;;;;12.87;100.00;101348.84;5008904;28;45466;-75
2022/12/28 04:02:35;;;;;;;;;4.67;3.33;;;;;12.88;100.00;101345.00;5009904;28;45360;-73
2022/12/28 04:05:00;;;;;;;;;6.00;4.67;;;;;12.88;100.00;101333.16;4999731;28;45347;-73
2022/12/28 04:07:26;;;;;;;;;4.00;3.00;;;;;12.88;100.00;101328.50;5011591;28;45710;-73
2022/12/28 04:09:52;;;;;;;;;4.00;3.33;;;;;12.83;100.00;101328.28;4986965;28;47190;-74
2022/12/28 04:12:17;;;;;;;;;5.67;3.33;;;;;12.78;100.00;101341.81;5003934;28;45365;-74
2022/12/28 04:14:43;;;;;;;;;3.00;3.00;;;;;12.81;100.00;101322.13;5025941;28;45458;-74
2022/12/28 04:17:08;;;;;;;;;3.33;3.33;;;;;12.79;100.00;101317.91;5011699;28;45392;-74
2022/12/28 04:19:34;;;;;;;;;5.00;3.00;;;;;12.77;100.00;101315.38;5024030;28;45920;-73
2022/12/28 04:21:59;;;;;;;;;6.33;3.00;;;;;12.78;100.00;101317.03;5009132;28;45795;-73
2022/12/28 04:24:24;;;;;;;;;7.67;5.33;;;;;12.79;100.00;101318.75;5007221;28;46444;-74
2022/12/28 04:26:50;;;;;;;;;4.33;4.00;;;;;12.79;100.00;101307.72;4996205;28;45347;-73
2022/12/28 04:29:15;;;;;;;;;4.00;2.67;;;;;12.77;100.00;101311.75;4997025;28;47017;-73
2022/12/28 04:31:40;;;;;;;;;3.67;3.67;;;;;12.69;100.00;101290.78;4988210;28;45743;-74
2022/12/28 04:34:06;;;;;;;;;5.33;3.67;;;;;12.72;100.00;101298.63;5022262;28;45839;-74
2022/12/28 04:36:32;;;;;;;;;4.33;4.33;;;;;12.73;100.00;101297.56;4996673;28;45403;-73
2022/12/28 04:38:58;;;;;;;;;3.67;2.67;;;;;12.73;100.00;101297.56;5002836;28;47345;-73
2022/12/28 04:41:27;;;;;;;;;2.33;2.33;;;;;12.73;100.00;101297.56;5016065;28;45697;-72
2022/12/28 04:43:54;;;;;;;;;2.00;2.00;;;;;12.73;100.00;101296.72;5009153;28;45375;-73
2022/12/28 04:46:19;;;;;;;;;5.67;3.67;;;;;12.68;100.00;101295.44;5018668;28;45471;-73
2022/12/28 04:48:45;;;;;;;;;3.00;3.00;;;;;12.76;100.00;101293.56;5024745;28;45366;-72
2022/12/28 04:51:19;;;;;;;;;3.33;3.33;;;;;12.70;100.00;101290.56;5005791;28;45420;-75
2022/12/28 04:53:45;;;;;;;;;2.67;2.67;;;;;12.72;100.00;101282.09;4998167;28;45797;-74
2022/12/28 04:56:12;;;;;;;;;4.67;2.33;;;;;12.74;100.00;101288.25;5011685;28;45473;-73
2022/12/28 04:58:39;;;;;;;;;3.67;3.67;;;;;12.76;100.00;101277.88;5019282;28;45802;-73
2022/12/28 05:01:07;;;;;;;;;5.67;4.33;;;;;12.74;100.00;101280.00;5021009;28;45397;-73
2022/12/28 05:03:33;;;;;;;;;3.50;3.50;;;;;12.74;100.00;101273.63;5020359;28;45592;-75
2022/12/28 05:06:03;;;;;;;;;1.67;1.67;;;;;12.73;100.00;101270.03;5019886;28;45589;-74
2022/12/28 05:08:31;;;;;;;;;3.00;2.00;;;;;12.75;100.00;101267.09;5013163;28;45698;-74
2022/12/28 05:11:01;;;;;;;;;3.00;0.33;;;;;12.71;100.00;101270.25;5012307;28;46763;-74
2022/12/28 05:13:26;;;;;;;;;2.33;2.33;;;;;12.68;100.00;101269.84;5013060;28;45705;-74
2022/12/28 05:15:52;;;;;;;;;3.33;2.67;;;;;12.61;100.00;101260.72;5022670;28;45470;-77
2022/12/28 05:18:17;;;;;;;;;4.00;2.00;;;;;12.62;100.00;101259.66;4996050;28;45421;-75
2022/12/28 05:20:43;;;;;;;;;2.67;1.67;;;;;12.60;100.00;101259.84;4995564;28;45436;-76
2022/12/28 05:23:08;;;;;;;;;2.33;2.33;;;;;12.57;100.00;101259.44;4998483;28;45657;-74
2022/12/28 05:25:33;;;;;;;;;2.67;2.67;;;;;12.52;100.00;101263.66;4997856;28;45791;-73
2022/12/28 05:27:59;;;;;;;;;1.00;1.00;;;;;12.52;100.00;101258.16;5023482;28;45705;-74
2022/12/28 05:30:24;;;;;;;;;3.00;2.00;;;;;12.49;100.00;101258.56;5019850;28;45465;-73
2022/12/28 05:32:50;;;;;;;;;3.33;2.67;;;;;12.43;100.00;101247.56;5008586;28;45639;-73
2022/12/28 05:35:15;;;;;;;;;6.33;3.00;;;;;12.42;100.00;101260.47;5012931;28;45344;-72
2022/12/28 05:37:41;;;;;;;;;3.00;2.00;;;;;12.39;100.00;101254.53;5015048;28;46223;-73
2022/12/28 05:40:07;;;;;;;;;3.00;3.00;;;;;12.39;100.00;101258.13;4999524;28;45748;-73
2022/12/28 05:42:34;;;;;;;;;3.67;2.67;;;;;12.46;100.00;101256.25;4988562;28;45320;-73
2022/12/28 05:45:00;;;;;;;;;1.00;1.00;;;;;12.49;100.00;101255.81;5024749;28;45884;-74
2022/12/28 05:47:25;;;;;;;;;3.00;3.00;;;;;12.46;100.00;101259.00;5022182;28;45608;-75
2022/12/28 05:49:51;;;;;;;;;4.67;2.33;;;;;12.46;100.00;101258.16;5018499;28;45311;-74
2022/12/28 05:52:16;;;;;;;;;4.00;2.00;;;;;12.43;100.00;101261.34;5019002;28;45363;-74
2022/12/28 05:54:41;;;;;;;;;1.67;1.67;;;;;12.43;100.00;101253.91;5014617;28;46800;-75
2022/12/28 05:57:07;;;;;;;;;3.33;2.33;;;;;12.46;100.00;101248.00;5010098;28;45353;-74
2022/12/28 05:59:32;;;;;;;;;2.33;2.33;;;;;12.49;100.00;101252.25;5026857;28;45545;-72
2022/12/28 06:01:58;;;;;;;;;3.00;3.00;;;;;12.42;100.00;101237.63;5019136;28;45532;-73
2022/12/28 06:04:24;;;;;;;;;3.00;2.33;;;;;12.49;100.00;101242.06;5016499;28;45833;-74
2022/12/28 06:06:49;;;;;;;;;2.33;2.33;;;;;12.49;100.00;101246.75;5020495;28;45878;-75
2022/12/28 06:09:15;;;;;;;;;2.67;1.67;;;;;12.50;100.00;101248.41;5008158;28;45486;-73
2022/12/28 06:11:41;;;;;;;;;5.33;3.33;;;;;12.43;100.00;101234.66;5021522;28;45316;-74
2022/12/28 06:14:07;;;;;;;;;5.00;2.33;;;;;12.46;100.00;101236.16;5021755;28;45737;-73
2022/12/28 06:16:35;;;;;;;;;4.00;4.00;;;;;12.48;100.00;101234.03;5012621;28;45960;-74
2022/12/28 06:19:08;;;;;;;;;1.33;1.33;;;;;12.52;100.00;101233.41;5027650;28;45806;-74
2022/12/28 06:21:36;;;;;;;;;7.00;4.00;;;;;12.41;100.00;101220.28;5005822;28;45414;-74
2022/12/28 06:24:03;;;;;;;;;5.67;2.67;;;;;12.40;100.00;101226.84;4997053;28;45513;-77
2022/12/28 06:26:31;;;;;;;;;3.33;3.33;;;;;12.46;100.00;101214.97;5003200;28;45398;-74
2022/12/28 06:28:57;;;;;;;;;3.00;2.00;;;;;12.54;100.00;101212.03;5003136;28;45486;-74
2022/12/28 06:31:26;;;;;;;;;2.33;2.33;;;;;12.48;100.00;101207.34;5013728;28;45396;-75
2022/12/28 06:33:53;;;;;;;;;2.00;1.00;;;;;12.50;100.00;101209.91;4997203;28;45867;-73
2022/12/28 06:36:27;;;;;;;;;4.67;3.67;;;;;12.51;100.00;101201.47;5015993;28;45357;-74
2022/12/28 06:38:54;;;;;;;;;3.00;3.00;;;;;12.56;100.00;101203.56;5025675;28;45410;-75
2022/12/28 06:41:21;;;;;;;;;5.33;3.00;;;;;12.60;100.00;101190.22;5015078;28;45315;-77
2022/12/28 06:43:47;;;;;;;;;2.33;2.33;;;;;12.61;100.00;101198.28;5028178;28;45926;-80
2022/12/28 06:46:14;;;;;;;;;6.33;2.67;;;;;12.60;100.00;101204.00;5013589;28;45666;-75
2022/12/28 06:48:40;;;;;;;;;6.67;4.00;;;;;12.56;100.00;101188.97;5006682;28;45396;-75
2022/12/28 06:51:10;;;;;;;;;3.67;3.00;;;;;12.61;100.00;101191.94;5025865;28;45587;-74
2022/12/28 06:53:37;;;;;;;;;6.00;1.67;;;;;12.65;100.00;101198.69;5007546;28;45661;-73
2022/12/28 06:56:09;;;;;;;;;3.00;2.00;;;;;12.66;100.00;101194.88;5030254;28;46245;-74
2022/12/28 06:58:35;;;;;;;;;3.33;3.33;;;;;12.62;100.00;101182.59;5020976;28;45717;-74
2022/12/28 07:01:11;;;;;;;;;2.67;2.00;;;;;12.69;100.00;101194.47;5017971;28;45603;-74
2022/12/28 07:03:37;;;;;;;;;3.00;0.67;;;;;12.73;100.00;101192.16;4994266;28;45761;-74
2022/12/28 07:06:04;;;;;;;;;3.00;2.33;;;;;12.78;100.00;101195.94;4978504;28;46884;-74
2022/12/28 07:08:30;;;;;;;;;3.67;3.67;;;;;12.76;100.00;101176.03;4995800;28;45470;-75
2022/12/28 07:11:08;;;;;;;;;2.00;2.00;;;;;12.76;100.00;101175.22;5002043;28;45415;-75
2022/12/28 07:13:33;;;;;;;;;2.67;0.67;;;;;12.85;100.00;101180.25;5005744;28;45542;-74
2022/12/28 07:16:04;;;;;;;;;3.00;1.33;;;;;12.89;100.00;101170.53;5006501;28;45428;-74
2022/12/28 07:18:30;;;;;;;;;2.00;1.67;;;;;12.87;100.00;101167.16;5006363;28;45468;-74
2022/12/28 07:21:00;;;;;;;;;1.67;1.67;;;;;12.89;100.00;101170.53;5019996;28;45526;-73
2022/12/28 07:23:28;;;;;;;;;3.67;2.33;;;;;12.87;100.00;101164.41;4992893;28;46921;-73
2022/12/28 07:25:56;;;;;;;;;2.33;2.33;;;;;12.94;100.00;101160.78;5004885;28;45976;-74
2022/12/28 07:28:21;;;;;;;;;1.00;0.67;;;;;12.96;100.00;101155.91;4991267;28;45792;-74
2022/12/28 07:30:47;;;;;;;;;3.67;2.67;;;;;12.94;100.00;101161.63;4995776;28;45329;-75
2022/12/28 07:33:12;;;;;;;;;2.00;2.00;;;;;12.98;100.00;101151.00;5017169;28;45474;-75
2022/12/28 07:35:37;;;;;;;;;3.67;2.00;;;;;12.99;100.00;101152.72;5007562;28;47120;-75
2022/12/28 07:38:03;;;;;;;;;3.33;2.00;;;;;12.98;100.00;101151.00;4990671;28;45831;-75
2022/12/28 07:40:28;;;;;;;;;2.00;1.67;;;;;13.01;100.00;101156.13;5017327;28;45528;-74
2022/12/28 07:42:54;;;;;;;;;3.67;2.00;;;;;13.04;100.00;101152.94;5023508;28;46167;-73
2022/12/28 07:45:19;;;;;;;;;1.67;1.67;;;;;13.02;100.00;101146.78;5013769;28;45814;-74
2022/12/28 07:47:45;;;;;;;;;1.33;1.33;;;;;13.01;100.00;101140.44;5000838;28;45692;-76
2022/12/28 07:50:11;;;;;;;;;3.00;3.00;;;;;12.92;100.00;101125.22;5014524;28;45408;-75
2022/12/28 07:52:36;;;;;;;;;3.33;2.33;;;;;12.91;100.00;101136.44;5010446;28;45350;-75
2022/12/28 07:55:02;;;;;;;;;4.00;1.67;;;;;12.93;100.00;101128.81;5015253;28;45497;-74
2022/12/28 07:57:28;;;;;;;;;2.33;1.00;;;;;12.95;100.00;101118.41;5013497;28;46780;-74
2022/12/28 07:59:53;;;;;;;;;2.67;1.67;;;;;12.97;100.00;101121.81;5015521;28;45613;-74
2022/12/28 08:02:19;;;;;;;;;1.33;1.33;;;;;13.02;100.00;101130.25;5016902;28;45655;-76
2022/12/28 08:04:44;;;;;;;;;2.33;1.67;;;;;13.03;100.00;101120.94;5013876;28;46623;-73
2022/12/28 08:07:10;;;;;;;;;2.00;1.67;;;;;13.05;100.00;101118.81;5020007;28;45743;-75
2022/12/28 08:09:35;;;;;;;;;1.33;1.33;;;;;13.02;100.00;101113.75;5004469;28;45636;-75
2022/12/28 08:12:01;;;;;;;;;2.67;2.67;;;;;12.99;100.00;101112.25;5009057;28;45720;-74
2022/12/28 08:14:28;;;;;;;;;3.67;1.67;;;;;12.97;100.00;101103.38;5019533;28;46151;-75
2022/12/28 08:16:53;;;;;;;;;5.67;2.67;;;;;13.03;100.00;101110.78;5026579;28;45374;-74
2022/12/28 08:19:19;;;;;;;;;4.00;2.67;;;;;12.97;100.00;101091.53;5025706;28;45641;-75
2022/12/28 08:21:45;;;;;;;;;1.50;1.50;;;;;12.92;100.00;101083.06;5005341;28;45861;-74
2022/12/28 08:24:16;;;;;;;;;3.67;2.67;;;;;12.87;100.00;101069.94;5001578;28;46989;-74
2022/12/28 08:26:42;;;;;;;;;1.67;1.67;;;;;12.95;100.00;101080.75;5020410;28;45438;-75
2022/12/28 08:29:12;;;;;;;;;4.00;3.67;;;;;12.93;100.00;101087.50;5035400;28;45673;-75
2022/12/28 08:31:40;;;;;;;;;6.33;2.67;;;;;12.87;100.00;101084.56;5004610;28;45833;-74
2022/12/28 08:34:09;;;;;;;;;2.00;2.00;;;;;12.88;100.00;101086.25;5026424;28;46381;-75
2022/12/28 08:36:35;;;;;;;;;3.67;2.67;;;;;12.90;100.00;101083.28;5007983;28;45419;-74
2022/12/28 08:39:01;;;;;;;;;6.33;2.00;;;;;12.95;100.00;101082.63;4996820;28;45451;-76
2022/12/28 08:41:28;;;;;;;;;2.33;1.67;;;;;13.03;100.00;101079.66;5005501;28;45521;-75
2022/12/28 08:43:54;;;;;;;;;2.33;2.00;;;;;12.88;100.00;101072.47;5016886;28;45642;-74
2022/12/28 08:46:25;;;;;;;;;4.67;2.67;;;;;12.86;100.00;101073.78;5004732;28;45319;-74
2022/12/28 08:48:52;;;;;;;;;2.00;2.00;;;;;12.91;100.00;101070.38;5025384;28;45661;-74
2022/12/28 08:51:20;;;;;;;;;2.67;2.67;;;;;12.98;100.00;101077.53;5004130;28;45818;-73
2022/12/28 08:53:46;;;;;;;;;5.00;3.67;;;;;13.00;100.00;101066.31;5013550;28;45814;-75
2022/12/28 08:56:19;;;;;;;;;3.33;3.33;;;;;13.01;100.00;101074.34;5002654;28;45379;-73
2022/12/28 08:58:46;;;;;;;;;5.67;3.33;;;;;13.04;100.00;101060.16;5014638;28;45621;-73
2022/12/28 09:01:22;;;;;;;;;4.67;2.67;;;;;12.94;100.00;101042.41;4998973;28;45712;-73
2022/12/28 09:03:50;;;;;;;;;3.67;3.00;;;;;13.07;100.00;101056.13;5009877;28;46640;-72
2022/12/28 09:06:18;;;;;;;;;5.67;3.00;;;;;13.13;100.00;101051.63;4998585;28;45300;-74
2022/12/28 09:08:43;;;;;;;;;7.67;3.00;;;;;13.16;100.00;101048.44;5002418;28;46217;-75
2022/12/28 09:11:11;;;;;;;;;4.00;2.67;;;;;13.20;100.00;101060.72;5016117;28;45410;-76
2022/12/28 09:13:38;;;;;;;;;2.67;2.33;;;;;13.17;100.00;101044.63;5001012;28;46183;-76
2022/12/28 09:16:13;;;;;;;;;4.33;3.00;;;;;13.17;100.00;101051.00;5025390;28;45401;-76
2022/12/28 09:18:40;;;;;;;;;5.00;4.00;;;;;13.23;100.00;101054.78;5030865;28;45707;-74
2022/12/28 09:21:13;;;;;;;;;1.67;1.67;;;;;13.31;100.00;101056.41;5014638;28;46165;-74
2022/12/28 09:23:39;;;;;;;;;2.33;1.67;;;;;13.36;100.00;101040.97;5020119;28;45629;-75
2022/12/28 09:26:11;;;;;;;;;4.00;2.67;;;;;13.44;100.00;101042.59;5009159;28;45351;-75
2022/12/28 09:28:37;;;;;;;;;6.00;3.33;;;;;13.46;100.00;101023.97;4978827;28;45561;-75
2022/12/28 09:31:07;;;;;;;;;3.00;3.00;;;;;13.50;100.00;101025.22;5001222;28;46278;-76
2022/12/28 09:36:18;;;;;;;;;4.33;3.00;;;;;13.53;100.00;101027.53;5019097;28;45705;-76
2022/12/28 09:38:48;;;;;;;;;2.33;2.33;;;;;13.55;100.00;101013.53;5003243;28;45831;-79
2022/12/28 09:41:25;;;;;;;;;3.00;1.67;;;;;13.57;100.00;101023.25;5014087;28;45443;-73
2022/12/28 09:43:58;;;;;;;;;2.67;2.67;;;;;13.58;100.00;101030.47;5025126;28;45704;-73
2022/12/28 09:46:24;;;;;;;;;3.33;3.33;;;;;13.57;100.00;101036.19;5001475;28;45697;-73
2022/12/28 09:48:56;;;;;;;;;4.33;2.67;;;;;13.57;100.00;101034.25;5021752;28;45713;-75
2022/12/28 09:51:31;;;;;;;;;2.00;1.00;;;;;13.71;100.00;101021.25;5011847;28;45434;-74
2022/12/28 09:53:56;;;;;;;;;2.67;2.67;;;;;13.74;100.00;101014.44;5027672;28;45887;-73
2022/12/28 09:56:48;;;;;;;;;4.67;2.00;;;;;13.78;100.00;101021.19;5018551;28;45390;-73
2022/12/28 09:59:19;;;;;;;;;3.33;2.67;;;;;13.85;100.00;101040.47;5012021;28;45732;-73
2022/12/28 10:01:56;;;;;;;;;4.67;3.33;;;;;13.92;100.00;101031.06;5025383;28;45770;-75
2022/12/28 10:04:21;;;;;;;;;5.33;3.00;;;;;14.02;100.00;101019.53;5022479;28;45696;-75
2022/12/28 10:06:47;;;;;;;;;2.67;2.67;;;;;14.11;100.00;101011.81;5019862;28;45299;-75
2022/12/28 10:09:24;;;;;;;;;3.00;3.00;;;;;14.19;100.00;101007.91;5026301;28;45806;-75
2022/12/28 10:11:50;;;;;;;;;3.00;3.00;;;;;14.26;100.00;101012.28;4991514;28;45803;-74
2022/12/28 10:14:33;;;;;;;;;3.00;1.67;;;;;14.30;100.00;101002.50;5022434;28;45657;-74
2022/12/28 10:16:59;;;;;;;;;4.67;4.00;;;;;14.41;100.00;101003.66;5030691;28;45658;-73
2022/12/28 10:19:27;;;;;;;;;4.00;3.33;;;;;14.40;100.00;100985.44;5014796;28;45394;-74
2022/12/28 10:22:02;;;;;;;;;4.00;3.00;;;;;14.46;100.00;101001.06;5012762;28;45506;-73
2022/12/28 10:24:29;;;;;;;;;6.67;4.00;;;;;14.49;100.00;101002.53;5031249;28;46355;-75
2022/12/28 10:26:59;;;;;;;;;3.67;2.00;;;;;14.39;100.00;100992.03;5014618;28;45585;-75
2022/12/28 10:29:26;;;;;;;;;4.67;3.00;;;;;14.37;100.00;100990.56;5008877;28;45731;-74
2022/12/28 10:32:08;;;;;;;;;3.00;3.00;;;;;14.30;100.00;100993.41;5005515;28;45856;-75
2022/12/28 10:34:35;;;;;;;;;5.00;4.00;;;;;14.23;100.00;100995.38;4995629;28;47030;-74
2022/12/28 10:37:31;;;;;;;;;5.00;5.00;;;;;14.09;100.00;100997.41;5016453;28;45613;-74
2022/12/28 10:40:00;;;;;;;;;2.67;2.00;;;;;14.01;100.00;100982.00;5011419;28;45788;-72
2022/12/28 10:42:41;;;;;;;;;3.33;2.00;;;;;13.86;100.00;100985.09;5026261;28;45390;-75
2022/12/28 10:45:17;;;;;;;;;3.67;3.67;;;;;13.78;100.00;100974.34;5018180;28;47138;-76
2022/12/28 10:47:47;;;;;;;;;1.67;1.67;;;;;13.79;100.00;100976.03;4994403;28;45745;-73
2022/12/28 10:50:45;;;;;;;;;4.67;2.67;;;;;13.78;100.00;100977.94;4995742;28;45614;-75
2022/12/28 10:53:29;;;;;;;;;3.00;2.33;;;;;13.73;100.00;100971.44;4993720;28;45485;-75
2022/12/28 10:56:19;;;;;;;;;5.67;3.33;;;;;13.72;100.00;100975.25;4994630;28;45882;-78
2022/12/28 10:58:47;;;;;;;;;3.00;3.00;;;;;13.72;100.00;100975.25;5001745;28;45681;-76
2022/12/28 11:01:12;;;;;;;;;3.33;2.67;;;;;13.71;100.00;100962.50;5006926;28;45422;-75
2022/12/28 11:03:43;;;;;;;;;3.00;3.00;;;;;13.78;100.00;100968.81;5007332;28;45384;-75
2022/12/28 11:06:18;;;;;;;;;4.33;2.00;;;;;13.94;100.00;100950.88;5007258;28;45847;-76
2022/12/28 11:08:57;;;;;;;;;3.33;2.67;;;;;14.04;100.00;100942.06;5004652;28;45723;-75
2022/12/28 11:11:24;;;;;;;;;2.33;2.33;;;;;14.11;100.00;100927.16;4994004;28;45281;-75
2022/12/28 11:14:01;;;;;;;;;0.00;0.00;;;;;14.07;100.00;100901.13;4996411;28;45622;-75
2022/12/28 11:16:30;;;;;;;;;2.00;1.67;;;;;14.18;100.00;100912.47;5020827;28;45806;-76
2022/12/28 11:18:57;;;;;;;;;2.00;2.00;;;;;14.23;100.00;100891.38;5010683;28;45345;-75
2022/12/28 11:21:22;;;;;;;;;3.00;3.00;;;;;14.29;100.00;100889.63;5010190;28;45640;-75
2022/12/28 11:23:50;;;;;;;;;2.67;1.00;;;;;14.36;100.00;100886.81;4995731;28;45498;-75
2022/12/28 11:26:16;;;;;;;;;2.00;2.00;;;;;14.46;100.00;100898.97;5001182;28;46949;-75
2022/12/28 11:28:44;;;;;;;;;4.00;2.00;;;;;14.44;100.00;100892.81;5005719;28;45637;-74
2022/12/28 11:31:25;;;;;;;;;4.00;2.00;;;;;14.46;100.00;100900.88;5004732;28;45649;-74
2022/12/28 11:33:55;;;;;;;;;2.00;2.00;;;;;14.42;100.00;100888.63;5011449;28;45751;-75
2022/12/28 11:36:24;;;;;;;;;2.67;2.00;;;;;14.36;100.00;100875.75;5011792;28;45678;-77
2022/12/28 11:38:51;;;;;;;;;2.00;2.00;;;;;14.39;100.00;100876.13;5016017;28;45479;-78
2022/12/28 11:41:23;;;;;;;;;2.00;2.00;;;;;14.44;100.00;100879.03;4998608;28;45430;-76
2022/12/28 11:44:03;;;;;;;;;4.67;2.00;;;;;14.49;100.00;100859.03;5018756;28;45601;-78
2022/12/28 11:46:28;;;;;;;;;2.00;1.00;;;;;14.53;100.00;100859.41;4982207;28;45652;-75
2022/12/28 11:48:54;;;;;;;;;3.00;3.00;;;;;14.61;100.00;100861.88;5022521;28;45728;-76
2022/12/28 11:51:31;;;;;;;;;2.33;2.33;;;;;14.50;100.00;100863.47;5009480;28;45686;-76
2022/12/28 11:54:00;;;;;;;;;2.33;2.33;;;;;14.51;100.00;100867.91;4994366;28;46100;-74
2022/12/28 11:56:42;;;;;;;;;5.00;4.00;;;;;14.42;100.00;100850.00;4988450;28;45593;-75
2022/12/28 11:59:29;;;;;;;;;4.00;4.00;;;;;14.46;100.00;100842.91;5009722;28;45723;-77
2022/12/28 12:01:55;;;;;;;;;4.00;4.00;;;;;14.41;100.00;100849.13;4997469;28;45592;-75